Time,TemperatureF,DewpointF,PressureIn,WindDirection,WindDirectionDegrees,WindSpeedMPH,WindSpeedGustMPH,Humidity,HourlyPrecipIn,Conditions,Clouds,dailyrainin,SoftwareType,DateUTC
2013-09-19 00:01:00,60.0,58.3,29.99,SSE,152,0.0,0.0,94,0.00,,,0.00,WeatherCatV1.21B27,2013-09-19 04:01:00,
2013-09-19 00:02:00,60.0,58.3,29.99,SSE,152,0.0,0.0,94,0.00,,,0.00,WeatherCatV1.21B27,2013-09-19 04:02:00,
2013-09-19 00:07:00,60.0,58.3,29.99,SSE,152,0.0,0.0,94,0.00,,,0.00,WeatherCatV1.21B27,2013-09-19 04:07:00,
2013-09-19 00:08:00,60.0,58.3,29.99,SSE,152,0.0,0.0,94,0.00,,,0.00,WeatherCatV1.21B27,2013-09-19 04:08:00,
2013-09-19 00:13:00,59.9,58.2,29.99,SSE,152,0.0,0.0,94,0.00,,,0.00,WeatherCatV1.21B27,2013-09-19 04:13:00,
2013-09-19 00:18:00,59.9,58.2,29.99,SSE,152,0.0,0.0,94,0.00,,,0.00,WeatherCatV1.21B27,2013-09-19 04:18:00,
2013-09-19 00:23:00,59.8,58.1,29.99,SSE,152,0.0,0.0,94,0.00,,,0.00,WeatherCatV1.21B27,2013-09-19 04:23:00,
2013-09-19 00:28:00,59.7,58.0,29.99,SSE,152,0.0,0.0,94,0.00,,,0.00,WeatherCatV1.21B27,2013-09-19 04:28:00,
2013-09-19 00:33:00,59.7,58.3,29.98,SSE,152,0.0,0.0,95,0.00,,,0.00,WeatherCatV1.21B27,2013-09-19 04:33:00,
2013-09-19 00:38:00,59.7,58.3,29.99,SSE,152,0.0,0.0,95,0.00,,,0.00,WeatherCatV1.21B27,2013-09-19 04:38:00,
2013-09-19 00:43:00,59.5,57.8,29.98,SSE,152,0.0,0.0,94,0.00,,,0.00,WeatherCatV1.21B27,2013-09-19 04:43:00,
2013-09-19 00:48:00,59.3,57.6,29.98,SSE,152,0.0,1.0,94,0.00,,,0.00,WeatherCatV1.21B27,2013-09-19 04:48:00,
2013-09-19 00:53:00,59.1,57.4,29.98,SSE,152,0.0,0.0,94,0.00,,,0.00,WeatherCatV1.21B27,2013-09-19 04:53:00,
2013-09-19 00:58:00,59.0,57.6,29.98,SSE,152,0.0,0.0,95,0.00,,,0.00,WeatherCatV1.21B27,2013-09-19 04:58:00,
2013-09-19 01:03:00,59.0,57.6,29.98,SSE,152,0.0,0.0,95,0.00,,,0.00,WeatherCatV1.21B27,2013-09-19 05:03:00,
2013-09-19 01:08:00,58.7,57.0,29.98,SSE,152,0.0,0.0,94,0.00,,,0.00,WeatherCatV1.21B27,2013-09-19 05:08:00,
2013-09-19 01:13:00,58.5,56.8,29.98,SSE,152,0.0,0.0,94,0.00,,,0.00,WeatherCatV1.21B27,2013-09-19 05:13:00,
2013-09-19 01:18:00,58.5,57.1,29.98,SSE,152,0.0,0.0,95,0.00,,,0.00,WeatherCatV1.21B27,2013-09-19 05:18:00,
2013-09-19 01:23:00,58.4,57.0,29.98,SSE,152,0.0,0.0,95,0.00,,,0.00,WeatherCatV1.21B27,2013-09-19 05:23:00,
2013-09-19 01:28:00,58.1,56.4,29.98,SSE,152,0.0,1.0,94,0.00,,,0.00,WeatherCatV1.21B27,2013-09-19 05:28:00,
2013-09-19 01:33:00,57.6,55.9,29.98,SSE,152,0.0,0.0,94,0.00,,,0.00,WeatherCatV1.21B27,2013-09-19 05:33:00,
2013-09-19 01:38:00,57.3,55.6,29.98,SSE,152,0.0,0.0,94,0.00,,,0.00,WeatherCatV1.21B27,2013-09-19 05:38:00,
2013-09-19 01:43:00,56.9,55.2,29.98,SSE,152,0.0,0.0,94,0.00,,,0.00,WeatherCatV1.21B27,2013-09-19 05:43:00,
2013-09-19 01:48:00,56.8,55.1,29.98,SSE,152,0.0,0.0,94,0.00,,,0.00,WeatherCatV1.21B27,2013-09-19 05:48:00,
2013-09-19 01:53:00,56.6,54.9,29.98,SSE,152,0.0,0.0,94,0.00,,,0.00,WeatherCatV1.21B27,2013-09-19 05:53:00,
2013-09-19 01:58:00,56.4,55.0,29.98,SSE,152,0.0,0.0,95,0.00,,,0.00,WeatherCatV1.21B27,2013-09-19 05:58:00,
2013-09-19 02:03:00,56.2,54.8,29.98,SSE,152,0.0,0.0,95,0.00,,,0.00,WeatherCatV1.21B27,2013-09-19 06:03:00,
2013-09-19 02:08:00,56.1,54.7,29.97,SSE,152,0.0,0.0,95,0.00,,,0.00,WeatherCatV1.21B27,2013-09-19 06:08:00,
2013-09-19 02:13:00,56.2,54.8,29.98,SSE,152,0.0,0.0,95,0.00,,,0.00,WeatherCatV1.21B27,2013-09-19 06:13:00,
2013-09-19 02:18:00,56.3,54.9,29.97,SSE,152,0.0,0.0,95,0.00,,,0.00,WeatherCatV1.21B27,2013-09-19 06:18:00,
2013-09-19 02:23:00,56.5,55.4,29.97,SSE,152,0.0,0.0,96,0.00,,,0.00,WeatherCatV1.21B27,2013-09-19 06:23:00,
2013-09-19 02:28:00,56.3,54.9,29.97,SSE,152,0.0,0.0,95,0.00,,,0.00,WeatherCatV1.21B27,2013-09-19 06:28:00,
2013-09-19 02:33:00,56.4,55.0,29.97,SSE,152,0.0,0.0,95,0.00,,,0.00,WeatherCatV1.21B27,2013-09-19 06:33:00,
2013-09-19 02:38:00,56.7,55.6,29.97,SSE,152,0.0,0.0,96,0.00,,,0.00,WeatherCatV1.21B27,2013-09-19 06:38:00,
2013-09-19 02:43:00,57.0,55.9,29.98,SSE,152,0.0,0.0,96,0.00,,,0.00,WeatherCatV1.21B27,2013-09-19 06:43:00,
2013-09-19 02:48:00,57.8,57.0,29.97,SSE,152,0.0,0.0,97,0.00,,,0.00,WeatherCatV1.21B27,2013-09-19 06:48:00,
2013-09-19 02:53:00,58.3,57.5,29.97,South,177,0.0,2.0,97,0.00,,,0.00,WeatherCatV1.21B27,2013-09-19 06:53:00,
2013-09-19 02:58:00,58.9,58.0,29.97,South,170,3.0,4.0,97,0.00,,,0.00,WeatherCatV1.21B27,2013-09-19 06:58:00,
2013-09-19 03:03:00,59.1,58.2,29.97,SSE,155,1.0,3.0,97,0.00,,,0.00,WeatherCatV1.21B27,2013-09-19 07:03:00,
2013-09-19 03:08:00,59.2,58.3,29.97,South,173,0.0,3.0,97,0.00,,,0.00,WeatherCatV1.21B27,2013-09-19 07:08:00,
2013-09-19 03:13:00,59.2,58.1,29.97,South,173,1.0,2.0,96,0.00,,,0.00,WeatherCatV1.21B27,2013-09-19 07:13:00,
2013-09-19 03:18:00,59.2,58.1,29.97,South,175,1.0,1.0,96,0.00,,,0.00,WeatherCatV1.21B27,2013-09-19 07:18:00,
2013-09-19 03:23:00,59.1,58.0,29.97,South,170,1.0,3.0,96,0.00,,,0.00,WeatherCatV1.21B27,2013-09-19 07:23:00,
2013-09-19 03:28:00,59.0,57.9,29.96,South,184,0.0,1.0,96,0.00,,,0.00,WeatherCatV1.21B27,2013-09-19 07:28:00,
2013-09-19 03:33:00,59.0,57.9,29.96,South,184,0.0,1.0,96,0.00,,,0.00,WeatherCatV1.21B27,2013-09-19 07:33:00,
2013-09-19 03:38:00,58.9,57.8,29.96,South,184,0.0,1.0,96,0.00,,,0.00,WeatherCatV1.21B27,2013-09-19 07:38:00,
2013-09-19 03:43:00,58.8,57.4,29.96,South,184,0.0,0.0,95,0.00,,,0.00,WeatherCatV1.21B27,2013-09-19 07:43:00,
2013-09-19 03:48:00,58.7,57.6,29.96,South,184,0.0,1.0,96,0.00,,,0.00,WeatherCatV1.21B27,2013-09-19 07:48:00,
2013-09-19 03:53:00,58.6,57.5,29.96,South,184,0.0,0.0,96,0.00,,,0.00,WeatherCatV1.21B27,2013-09-19 07:53:00,
2013-09-19 03:58:00,58.5,57.4,29.96,South,184,1.0,1.0,96,0.00,,,0.00,WeatherCatV1.21B27,2013-09-19 07:58:00,
2013-09-19 04:03:00,58.6,57.5,29.96,South,184,0.0,1.0,96,0.00,,,0.00,WeatherCatV1.21B27,2013-09-19 08:03:00,
2013-09-19 04:08:00,58.7,57.6,29.96,South,184,0.0,1.0,96,0.00,,,0.00,WeatherCatV1.21B27,2013-09-19 08:08:00,
2013-09-19 04:13:00,58.6,57.5,29.95,South,184,0.0,1.0,96,0.00,,,0.00,WeatherCatV1.21B27,2013-09-19 08:13:00,
2013-09-19 04:18:00,58.6,57.5,29.95,South,184,0.0,0.0,96,0.00,,,0.00,WeatherCatV1.21B27,2013-09-19 08:18:00,
2013-09-19 04:23:00,58.6,57.5,29.95,South,184,0.0,0.0,96,0.00,,,0.00,WeatherCatV1.21B27,2013-09-19 08:23:00,
2013-09-19 04:28:00,58.5,57.1,29.95,South,184,0.0,0.0,95,0.00,,,0.00,WeatherCatV1.21B27,2013-09-19 08:28:00,
2013-09-19 04:33:00,58.3,56.9,29.95,South,184,0.0,0.0,95,0.00,,,0.00,WeatherCatV1.21B27,2013-09-19 08:33:00,
2013-09-19 04:38:00,58.1,56.7,29.95,South,184,0.0,0.0,95,0.00,,,0.00,WeatherCatV1.21B27,2013-09-19 08:38:00,
2013-09-19 04:43:00,57.9,56.5,29.95,South,184,0.0,0.0,95,0.00,,,0.00,WeatherCatV1.21B27,2013-09-19 08:43:00,
2013-09-19 04:48:00,57.7,56.3,29.94,South,184,0.0,0.0,95,0.00,,,0.00,WeatherCatV1.21B27,2013-09-19 08:48:00,
2013-09-19 04:53:00,57.4,55.7,29.95,South,184,0.0,0.0,94,0.00,,,0.00,WeatherCatV1.21B27,2013-09-19 08:53:00,
2013-09-19 04:58:00,57.0,55.6,29.95,South,184,0.0,0.0,95,0.00,,,0.00,WeatherCatV1.21B27,2013-09-19 08:58:00,
2013-09-19 05:03:00,56.8,55.4,29.94,South,184,0.0,0.0,95,0.00,,,0.00,WeatherCatV1.21B27,2013-09-19 09:03:00,
2013-09-19 05:08:00,56.7,55.3,29.95,South,184,0.0,0.0,95,0.00,,,0.00,WeatherCatV1.21B27,2013-09-19 09:08:00,
2013-09-19 05:13:00,56.6,55.2,29.95,South,184,0.0,0.0,95,0.00,,,0.00,WeatherCatV1.21B27,2013-09-19 09:13:00,
2013-09-19 05:18:00,56.6,55.2,29.95,South,184,0.0,0.0,95,0.00,,,0.00,WeatherCatV1.21B27,2013-09-19 09:18:00,
2013-09-19 05:23:00,56.7,55.6,29.95,South,184,0.0,0.0,96,0.00,,,0.00,WeatherCatV1.21B27,2013-09-19 09:23:00,
2013-09-19 05:28:00,56.9,55.8,29.95,South,184,0.0,0.0,96,0.00,,,0.00,WeatherCatV1.21B27,2013-09-19 09:28:00,
2013-09-19 05:33:00,57.1,56.0,29.95,South,184,0.0,0.0,96,0.00,,,0.00,WeatherCatV1.21B27,2013-09-19 09:33:00,
2013-09-19 05:38:00,57.2,56.1,29.95,South,184,0.0,0.0,96,0.00,,,0.00,WeatherCatV1.21B27,2013-09-19 09:38:00,
2013-09-19 05:43:00,57.2,56.1,29.95,South,184,0.0,0.0,96,0.00,,,0.00,WeatherCatV1.21B27,2013-09-19 09:43:00,
2013-09-19 05:48:00,57.3,56.2,29.94,South,184,0.0,0.0,96,0.00,,,0.00,WeatherCatV1.21B27,2013-09-19 09:48:00,
2013-09-19 05:53:00,57.3,56.2,29.94,South,184,1.0,1.0,96,0.00,,,0.00,WeatherCatV1.21B27,2013-09-19 09:53:00,
2013-09-19 05:58:00,57.2,56.1,29.94,South,184,0.0,0.0,96,0.00,,,0.00,WeatherCatV1.21B27,2013-09-19 09:58:00,
2013-09-19 06:03:00,57.2,56.1,29.94,South,184,0.0,0.0,96,0.00,,,0.00,WeatherCatV1.21B27,2013-09-19 10:03:00,
2013-09-19 06:08:00,57.2,56.1,29.95,South,184,0.0,0.0,96,0.00,,,0.00,WeatherCatV1.21B27,2013-09-19 10:08:00,
2013-09-19 06:13:00,57.3,56.2,29.95,South,184,0.0,0.0,96,0.00,,,0.00,WeatherCatV1.21B27,2013-09-19 10:13:00,
2013-09-19 06:18:00,57.3,56.2,29.95,South,184,0.0,0.0,96,0.00,,,0.00,WeatherCatV1.21B27,2013-09-19 10:18:00,
2013-09-19 06:23:00,57.1,55.7,29.95,South,184,0.0,0.0,95,0.00,,,0.00,WeatherCatV1.21B27,2013-09-19 10:23:00,
2013-09-19 06:28:00,57.0,55.6,29.95,South,184,0.0,0.0,95,0.00,,,0.00,WeatherCatV1.21B27,2013-09-19 10:28:00,
2013-09-19 06:33:00,56.5,55.1,29.96,South,184,0.0,0.0,95,0.00,,,0.00,WeatherCatV1.21B27,2013-09-19 10:33:00,
2013-09-19 06:38:00,56.0,54.3,29.96,South,184,0.0,0.0,94,0.00,,,0.00,WeatherCatV1.21B27,2013-09-19 10:38:00,
2013-09-19 06:43:00,55.7,54.3,29.96,South,184,0.0,0.0,95,0.00,,,0.00,WeatherCatV1.21B27,2013-09-19 10:43:00,
2013-09-19 06:48:00,55.7,54.3,29.96,South,184,0.0,0.0,95,0.00,,,0.00,WeatherCatV1.21B27,2013-09-19 10:48:00,
2013-09-19 06:53:00,55.7,54.3,29.96,South,184,0.0,0.0,95,0.00,,,0.00,WeatherCatV1.21B27,2013-09-19 10:53:00,
2013-09-19 06:58:00,55.5,54.1,29.96,South,184,0.0,1.0,95,0.00,,,0.00,WeatherCatV1.21B27,2013-09-19 10:58:00,
2013-09-19 07:03:00,55.7,54.6,29.96,South,184,0.0,1.0,96,0.00,,,0.00,WeatherCatV1.21B27,2013-09-19 11:03:00,
2013-09-19 07:08:00,56.1,55.0,29.96,South,184,0.0,1.0,96,0.00,,,0.00,WeatherCatV1.21B27,2013-09-19 11:08:00,
2013-09-19 07:13:00,56.4,55.3,29.97,South,184,0.0,0.0,96,0.00,,,0.00,WeatherCatV1.21B27,2013-09-19 11:13:00,
2013-09-19 07:18:00,56.4,55.3,29.97,South,184,0.0,0.0,96,0.00,,,0.00,WeatherCatV1.21B27,2013-09-19 11:18:00,
2013-09-19 07:23:00,56.2,55.1,29.97,South,184,0.0,0.0,96,0.00,,,0.00,WeatherCatV1.21B27,2013-09-19 11:23:00,
2013-09-19 07:28:00,56.0,54.9,29.98,South,184,0.0,0.0,96,0.00,,,0.00,WeatherCatV1.21B27,2013-09-19 11:28:00,
2013-09-19 07:33:00,55.7,54.3,29.98,South,184,0.0,0.0,95,0.00,,,0.00,WeatherCatV1.21B27,2013-09-19 11:33:00,
2013-09-19 07:38:00,55.7,54.3,29.98,South,184,0.0,0.0,95,0.00,,,0.00,WeatherCatV1.21B27,2013-09-19 11:38:00,
2013-09-19 07:43:00,55.8,54.7,29.98,South,184,0.0,0.0,96,0.00,,,0.00,WeatherCatV1.21B27,2013-09-19 11:43:00,
2013-09-19 07:48:00,56.0,54.9,29.98,South,184,1.0,1.0,96,0.00,,,0.00,WeatherCatV1.21B27,2013-09-19 11:48:00,
2013-09-19 07:54:00,56.7,55.9,29.98,South,185,0.0,3.0,97,0.00,,,0.00,WeatherCatV1.21B27,2013-09-19 11:54:00,
2013-09-19 07:59:00,57.3,56.5,29.98,South,175,0.0,2.0,97,0.00,,,0.00,WeatherCatV1.21B27,2013-09-19 11:59:00,
2013-09-19 08:04:00,57.7,56.8,29.98,South,169,0.0,3.0,97,0.00,,,0.00,WeatherCatV1.21B27,2013-09-19 12:04:00,
2013-09-19 08:09:00,57.9,57.0,29.98,SSE,168,0.0,1.0,97,0.00,,,0.00,WeatherCatV1.21B27,2013-09-19 12:09:00,
2013-09-19 08:14:00,58.1,57.2,29.98,South,177,1.0,2.0,97,0.00,,,0.00,WeatherCatV1.21B27,2013-09-19 12:14:00,
2013-09-19 08:19:00,58.3,57.2,29.98,South,175,0.0,1.0,96,0.00,,,0.00,WeatherCatV1.21B27,2013-09-19 12:19:00,
2013-09-19 08:24:00,58.5,57.4,29.98,South,175,0.0,1.0,96,0.00,,,0.00,WeatherCatV1.21B27,2013-09-19 12:24:00,
2013-09-19 08:29:00,58.7,57.6,29.97,South,175,2.0,4.0,96,0.00,,,0.00,WeatherCatV1.21B27,2013-09-19 12:29:00,
2013-09-19 08:34:00,58.9,57.8,29.97,SSW,194,1.0,3.0,96,0.00,,,0.00,WeatherCatV1.21B27,2013-09-19 12:34:00,
2013-09-19 08:39:00,59.2,58.1,29.97,SSE,153,1.0,3.0,96,0.00,,,0.00,WeatherCatV1.21B27,2013-09-19 12:39:00,
2013-09-19 08:44:00,59.4,58.3,29.97,SSE,167,0.0,2.0,96,0.00,,,0.00,WeatherCatV1.21B27,2013-09-19 12:44:00,
2013-09-19 08:49:00,59.7,58.3,29.97,SE,146,0.0,3.0,95,0.00,,,0.00,WeatherCatV1.21B27,2013-09-19 12:49:00,
2013-09-19 08:54:00,59.8,58.4,29.97,South,180,1.0,3.0,95,0.00,,,0.00,WeatherCatV1.21B27,2013-09-19 12:54:00,
2013-09-19 08:59:00,60.1,58.7,29.97,SSE,157,0.0,2.0,95,0.00,,,0.00,WeatherCatV1.21B27,2013-09-19 12:59:00,
2013-09-19 09:04:00,60.2,58.8,29.97,South,173,0.0,1.0,95,0.00,,,0.00,WeatherCatV1.21B27,2013-09-19 13:04:00,
2013-09-19 09:09:00,60.5,59.1,29.97,South,171,0.0,2.0,95,0.00,,,0.00,WeatherCatV1.21B27,2013-09-19 13:09:00,
2013-09-19 09:14:00,60.6,59.2,29.97,South,179,1.0,3.0,95,0.00,,,0.00,WeatherCatV1.21B27,2013-09-19 13:14:00,
2013-09-19 09:19:00,60.8,59.4,29.97,South,180,2.0,4.0,95,0.00,,,0.00,WeatherCatV1.21B27,2013-09-19 13:19:00,
2013-09-19 09:24:00,60.9,59.5,29.97,South,190,1.0,4.0,95,0.00,,,0.00,WeatherCatV1.21B27,2013-09-19 13:24:00,
2013-09-19 09:29:00,61.1,59.7,29.97,South,179,2.0,5.0,95,0.00,,,0.00,WeatherCatV1.21B27,2013-09-19 13:29:00,
2013-09-19 09:34:00,61.3,59.8,29.97,SSE,166,2.0,3.0,95,0.00,,,0.00,WeatherCatV1.21B27,2013-09-19 13:34:00,
2013-09-19 09:39:00,61.4,60.0,29.98,South,174,2.0,4.0,95,0.00,,,0.00,WeatherCatV1.21B27,2013-09-19 13:39:00,
2013-09-19 09:44:00,61.6,60.2,29.98,SSE,148,1.0,5.0,95,0.00,,,0.00,WeatherCatV1.21B27,2013-09-19 13:44:00,
2013-09-19 09:49:00,61.8,60.3,29.98,SSE,149,4.0,4.0,95,0.00,,,0.00,WeatherCatV1.21B27,2013-09-19 13:49:00,
2013-09-19 09:54:00,61.8,60.3,29.97,South,171,2.0,3.0,95,0.00,,,0.00,WeatherCatV1.21B27,2013-09-19 13:54:00,
2013-09-19 09:59:00,62.0,60.5,29.98,South,184,3.0,3.0,95,0.00,,,0.00,WeatherCatV1.21B27,2013-09-19 13:59:00,
2013-09-19 10:04:00,62.2,60.8,29.97,South,181,1.0,3.0,95,0.00,,,0.00,WeatherCatV1.21B27,2013-09-19 14:04:00,
2013-09-19 10:09:00,62.4,61.0,29.97,SSE,166,2.0,4.0,95,0.00,,,0.00,WeatherCatV1.21B27,2013-09-19 14:09:00,
2013-09-19 10:14:00,62.6,61.1,29.97,South,171,2.0,4.0,95,0.00,,,0.00,WeatherCatV1.21B27,2013-09-19 14:14:00,
2013-09-19 10:19:00,62.9,61.4,29.97,South,191,2.0,4.0,95,0.00,,,0.00,WeatherCatV1.21B27,2013-09-19 14:19:00,
2013-09-19 10:24:00,63.2,62.0,29.97,South,188,2.0,7.0,96,0.00,,,0.00,WeatherCatV1.21B27,2013-09-19 14:24:00,
2013-09-19 10:29:00,63.3,61.8,29.97,SSE,155,3.0,7.0,95,0.00,,,0.00,WeatherCatV1.21B27,2013-09-19 14:29:00,
2013-09-19 10:34:00,63.5,62.3,29.97,South,182,3.0,3.0,96,0.00,,,0.00,WeatherCatV1.21B27,2013-09-19 14:34:00,
2013-09-19 10:39:00,63.8,62.6,29.97,SW,227,1.0,3.0,96,0.00,,,0.00,WeatherCatV1.21B27,2013-09-19 14:39:00,
2013-09-19 10:44:00,64.1,62.6,29.97,SSW,196,5.0,5.0,95,0.00,,,0.00,WeatherCatV1.21B27,2013-09-19 14:44:00,
2013-09-19 10:49:00,64.3,62.8,29.97,South,174,2.0,3.0,95,0.00,,,0.00,WeatherCatV1.21B27,2013-09-19 14:49:00,
2013-09-19 10:54:00,64.5,63.0,29.97,SSE,163,3.0,4.0,95,0.00,,,0.00,WeatherCatV1.21B27,2013-09-19 14:54:00,
2013-09-19 10:59:00,64.8,63.3,29.97,SSW,207,1.0,2.0,95,0.00,,,0.00,WeatherCatV1.21B27,2013-09-19 14:59:00,
2013-09-19 11:04:00,65.2,63.7,29.97,WSW,239,1.0,4.0,95,0.00,,,0.00,WeatherCatV1.21B27,2013-09-19 15:04:00,
2013-09-19 11:09:00,65.6,64.1,29.97,SSW,192,2.0,5.0,95,0.00,,,0.00,WeatherCatV1.21B27,2013-09-19 15:09:00,
2013-09-19 11:14:00,65.9,64.1,29.97,SW,221,1.0,5.0,94,0.00,,,0.00,WeatherCatV1.21B27,2013-09-19 15:14:00,
2013-09-19 11:19:00,66.3,64.5,29.97,SSW,205,5.0,5.0,94,0.00,,,0.00,WeatherCatV1.21B27,2013-09-19 15:19:00,
2013-09-19 11:24:00,66.9,65.1,29.97,SSW,210,4.0,5.0,94,0.00,,,0.00,WeatherCatV1.21B27,2013-09-19 15:24:00,
2013-09-19 11:29:00,67.6,65.5,29.96,SSW,203,2.0,7.0,93,0.00,,,0.00,WeatherCatV1.21B27,2013-09-19 15:29:00,
2013-09-19 11:34:00,68.5,66.1,29.96,South,191,1.0,2.0,92,0.00,,,0.00,WeatherCatV1.21B27,2013-09-19 15:34:00,
2013-09-19 11:39:00,69.3,66.6,29.95,SSW,198,3.0,3.0,91,0.00,,,0.00,WeatherCatV1.21B27,2013-09-19 15:39:00,
2013-09-19 11:44:00,69.7,66.0,29.95,WSW,251,2.0,6.0,88,0.00,,,0.00,WeatherCatV1.21B27,2013-09-19 15:44:00,
2013-09-19 11:49:00,70.3,66.6,29.95,SSE,158,4.0,5.0,88,0.00,,,0.00,WeatherCatV1.21B27,2013-09-19 15:49:00,
2013-09-19 11:54:00,70.8,66.7,29.95,South,177,2.0,7.0,87,0.00,,,0.00,WeatherCatV1.21B27,2013-09-19 15:54:00,
2013-09-19 11:59:00,71.0,66.6,29.95,SW,227,4.0,6.0,86,0.00,,,0.00,WeatherCatV1.21B27,2013-09-19 15:59:00,
2013-09-19 12:04:00,71.5,67.1,29.95,SSW,196,2.0,5.0,86,0.00,,,0.00,WeatherCatV1.21B27,2013-09-19 16:04:00,
2013-09-19 12:09:00,72.1,67.7,29.95,SSW,200,3.0,4.0,86,0.00,,,0.00,WeatherCatV1.21B27,2013-09-19 16:09:00,
2013-09-19 12:15:00,72.5,67.0,29.95,SSE,167,1.0,6.0,83,0.00,,,0.00,WeatherCatV1.21B27,2013-09-19 16:15:00,
2013-09-19 12:20:00,73.0,67.9,29.95,SW,225,4.0,5.0,84,0.00,,,0.00,WeatherCatV1.21B27,2013-09-19 16:20:00,
2013-09-19 12:25:00,73.6,67.8,29.95,SW,232,3.0,7.0,82,0.00,,,0.00,WeatherCatV1.21B27,2013-09-19 16:25:00,
2013-09-19 12:30:00,73.8,67.2,29.95,West,275,3.0,8.0,80,0.00,,,0.00,WeatherCatV1.21B27,2013-09-19 16:30:00,
2013-09-19 12:35:00,73.5,66.9,29.95,WSW,246,5.0,8.0,80,0.00,,,0.00,WeatherCatV1.21B27,2013-09-19 16:35:00,
2013-09-19 12:40:00,73.5,67.3,29.94,South,182,5.0,7.0,81,0.00,,,0.00,WeatherCatV1.21B27,2013-09-19 16:40:00,
2013-09-19 12:45:00,74.0,67.8,29.94,South,176,6.0,8.0,81,0.00,,,0.00,WeatherCatV1.21B27,2013-09-19 16:45:00,
2013-09-19 12:50:00,74.2,68.0,29.94,South,184,5.0,6.0,81,0.00,,,0.00,WeatherCatV1.21B27,2013-09-19 16:50:00,
2013-09-19 12:55:00,74.6,68.4,29.93,SW,224,4.0,5.0,81,0.00,,,0.00,WeatherCatV1.21B27,2013-09-19 16:55:00,
2013-09-19 13:00:00,75.2,68.2,29.93,SSW,201,7.0,9.0,79,0.00,,,0.00,WeatherCatV1.21B27,2013-09-19 17:00:00,
2013-09-19 13:05:00,75.5,68.5,29.93,WSW,243,8.0,8.0,79,0.00,,,0.00,WeatherCatV1.21B27,2013-09-19 17:05:00,
2013-09-19 13:10:00,76.0,69.0,29.93,SW,221,3.0,8.0,79,0.00,,,0.00,WeatherCatV1.21B27,2013-09-19 17:10:00,
2013-09-19 13:15:00,76.4,68.3,29.92,SE,144,4.0,8.0,76,0.00,,,0.00,WeatherCatV1.21B27,2013-09-19 17:15:00,
2013-09-19 13:20:00,76.5,68.3,29.93,SSW,197,4.0,7.0,76,0.00,,,0.00,WeatherCatV1.21B27,2013-09-19 17:20:00,
2013-09-19 13:25:00,76.8,69.0,29.93,South,190,0.0,7.0,77,0.00,,,0.00,WeatherCatV1.21B27,2013-09-19 17:25:00,
2013-09-19 13:30:00,77.3,68.7,29.93,SSE,155,3.0,9.0,75,0.00,,,0.00,WeatherCatV1.21B27,2013-09-19 17:30:00,
2013-09-19 13:35:00,77.3,68.7,29.93,South,185,6.0,7.0,75,0.00,,,0.00,WeatherCatV1.21B27,2013-09-19 17:35:00,
2013-09-19 13:40:00,77.1,68.2,29.92,SSW,199,5.0,8.0,74,0.00,,,0.00,WeatherCatV1.21B27,2013-09-19 17:40:00,
2013-09-19 13:46:00,77.2,69.0,29.92,South,171,1.0,3.0,76,0.00,,,0.00,WeatherCatV1.21B27,2013-09-19 17:46:00,
2013-09-19 13:51:00,77.5,68.9,29.92,SW,229,2.0,6.0,75,0.00,,,0.00,WeatherCatV1.21B27,2013-09-19 17:51:00,
2013-09-19 13:56:00,77.6,68.6,29.92,West,271,0.0,7.0,74,0.00,,,0.00,WeatherCatV1.21B27,2013-09-19 17:56:00,
2013-09-19 14:01:00,78.0,69.0,29.92,WSW,258,5.0,8.0,74,0.00,,,0.00,WeatherCatV1.21B27,2013-09-19 18:01:00,
2013-09-19 14:06:00,78.0,68.6,29.92,WSW,255,4.0,7.0,73,0.00,,,0.00,WeatherCatV1.21B27,2013-09-19 18:06:00,
2013-09-19 14:11:00,77.8,68.4,29.92,West,265,2.0,7.0,73,0.00,,,0.00,WeatherCatV1.21B27,2013-09-19 18:11:00,
2013-09-19 14:16:00,77.6,68.2,29.92,WSW,255,3.0,9.0,73,0.00,,,0.00,WeatherCatV1.21B27,2013-09-19 18:16:00,
2013-09-19 14:21:00,77.1,67.8,29.92,WSW,238,1.0,7.0,73,0.00,,,0.00,WeatherCatV1.21B27,2013-09-19 18:21:00,
2013-09-19 14:26:00,76.9,68.3,29.92,South,188,3.0,6.0,75,0.00,,,0.00,WeatherCatV1.21B27,2013-09-19 18:26:00,
2013-09-19 14:31:00,76.7,67.8,29.92,SW,234,2.0,3.0,74,0.00,,,0.00,WeatherCatV1.21B27,2013-09-19 18:31:00,
2013-09-19 14:36:00,76.6,68.1,29.92,WSW,247,3.0,5.0,75,0.00,,,0.00,WeatherCatV1.21B27,2013-09-19 18:36:00,
2013-09-19 14:41:00,76.5,68.0,29.92,SW,216,0.0,3.0,75,0.00,,,0.00,WeatherCatV1.21B27,2013-09-19 18:41:00,
2013-09-19 14:46:00,76.5,68.3,29.91,SSW,205,0.0,3.0,76,0.00,,,0.00,WeatherCatV1.21B27,2013-09-19 18:46:00,
2013-09-19 14:51:00,76.6,68.4,29.91,SW,215,1.0,4.0,76,0.00,,,0.00,WeatherCatV1.21B27,2013-09-19 18:51:00,
2013-09-19 14:56:00,76.7,68.9,29.91,SW,215,2.0,3.0,77,0.00,,,0.00,WeatherCatV1.21B27,2013-09-19 18:56:00,
2013-09-19 15:01:00,76.9,68.7,29.91,South,190,3.0,3.0,76,0.00,,,0.00,WeatherCatV1.21B27,2013-09-19 19:01:00,
2013-09-19 15:06:00,77.1,68.9,29.90,South,188,2.0,4.0,76,0.00,,,0.00,WeatherCatV1.21B27,2013-09-19 19:06:00,
2013-09-19 15:11:00,77.3,69.1,29.90,South,185,1.0,3.0,76,0.00,,,0.00,WeatherCatV1.21B27,2013-09-19 19:11:00,
2013-09-19 15:16:00,77.5,69.3,29.90,SSW,194,3.0,5.0,76,0.00,,,0.00,WeatherCatV1.21B27,2013-09-19 19:16:00,
2013-09-19 15:21:00,77.5,69.3,29.90,SSW,202,3.0,5.0,76,0.00,,,0.00,WeatherCatV1.21B27,2013-09-19 19:21:00,
2013-09-19 15:26:00,77.4,68.8,29.90,SSW,196,0.0,4.0,75,0.00,,,0.00,WeatherCatV1.21B27,2013-09-19 19:26:00,
2013-09-19 15:31:00,77.4,69.2,29.90,South,169,1.0,6.0,76,0.00,,,0.00,WeatherCatV1.21B27,2013-09-19 19:31:00,
2013-09-19 15:36:00,77.4,68.4,29.90,South,178,5.0,9.0,74,0.00,,,0.00,WeatherCatV1.21B27,2013-09-19 19:36:00,
2013-09-19 15:41:00,77.3,68.7,29.90,WSW,244,8.0,8.0,75,0.00,,,0.00,WeatherCatV1.21B27,2013-09-19 19:41:00,
2013-09-19 15:46:00,77.2,69.0,29.90,SSW,192,4.0,6.0,76,0.00,,,0.00,WeatherCatV1.21B27,2013-09-19 19:46:00,
2013-09-19 15:51:00,77.1,68.9,29.90,SSW,210,3.0,4.0,76,0.00,,,0.00,WeatherCatV1.21B27,2013-09-19 19:51:00,
2013-09-19 15:56:00,77.1,68.9,29.90,SSW,207,6.0,9.0,76,0.00,,,0.00,WeatherCatV1.21B27,2013-09-19 19:56:00,
2013-09-19 16:01:00,77.0,68.8,29.90,West,259,4.0,9.0,76,0.00,,,0.00,WeatherCatV1.21B27,2013-09-19 20:01:00,
2013-09-19 16:06:00,76.8,68.6,29.90,WSW,243,3.0,4.0,76,0.00,,,0.00,WeatherCatV1.21B27,2013-09-19 20:06:00,
2013-09-19 16:11:00,76.7,69.3,29.90,SSE,163,5.0,5.0,78,0.00,,,0.00,WeatherCatV1.21B27,2013-09-19 20:11:00,
2013-09-19 16:16:00,76.6,68.8,29.90,SSW,199,2.0,7.0,77,0.00,,,0.00,WeatherCatV1.21B27,2013-09-19 20:16:00,
2013-09-19 16:21:00,76.4,68.6,29.89,SW,221,3.0,8.0,77,0.00,,,0.00,WeatherCatV1.21B27,2013-09-19 20:21:00,
2013-09-19 16:26:00,76.2,68.8,29.89,South,186,8.0,8.0,78,0.00,,,0.00,WeatherCatV1.21B27,2013-09-19 20:26:00,
2013-09-19 16:31:00,76.1,69.1,29.89,SSW,205,0.0,6.0,79,0.00,,,0.00,WeatherCatV1.21B27,2013-09-19 20:31:00,
2013-09-19 16:36:00,75.8,68.8,29.89,WSW,255,3.0,5.0,79,0.00,,,0.00,WeatherCatV1.21B27,2013-09-19 20:36:00,
2013-09-19 16:41:00,75.5,68.9,29.89,SSW,196,4.0,5.0,80,0.00,,,0.00,WeatherCatV1.21B27,2013-09-19 20:41:00,
2013-09-19 16:46:00,75.0,68.4,29.89,SSW,205,6.0,9.0,80,0.00,,,0.00,WeatherCatV1.21B27,2013-09-19 20:46:00,
2013-09-19 16:51:00,74.5,68.3,29.89,WSW,246,1.0,6.0,81,0.00,,,0.00,WeatherCatV1.21B27,2013-09-19 20:51:00,
2013-09-19 16:56:00,74.1,67.9,29.89,SSW,202,6.0,10.0,81,0.00,,,0.00,WeatherCatV1.21B27,2013-09-19 20:56:00,
2013-09-19 17:02:00,73.7,67.5,29.89,South,181,3.0,9.0,81,0.00,,,0.00,WeatherCatV1.21B27,2013-09-19 21:02:00,
2013-09-19 17:07:00,73.7,67.5,29.89,SSW,195,7.0,7.0,81,0.00,,,0.00,WeatherCatV1.21B27,2013-09-19 21:07:00,
2013-09-19 17:12:00,73.9,67.3,29.89,SW,214,3.0,7.0,80,0.00,,,0.00,WeatherCatV1.21B27,2013-09-19 21:12:00,
2013-09-19 17:18:00,73.9,67.3,29.89,SSW,213,1.0,9.0,80,0.00,,,0.00,WeatherCatV1.21B27,2013-09-19 21:18:00,
2013-09-19 17:23:00,74.3,67.7,29.89,SSW,196,4.0,7.0,80,0.00,,,0.00,WeatherCatV1.21B27,2013-09-19 21:23:00,
2013-09-19 17:28:00,74.9,67.9,29.89,SW,225,1.0,5.0,79,0.00,,,0.00,WeatherCatV1.21B27,2013-09-19 21:28:00,
2013-09-19 17:33:00,75.2,67.8,29.89,SSE,155,3.0,7.0,78,0.00,,,0.00,WeatherCatV1.21B27,2013-09-19 21:33:00,
2013-09-19 17:38:00,75.1,67.4,29.88,SW,215,5.0,9.0,77,0.00,,,0.00,WeatherCatV1.21B27,2013-09-19 21:38:00,
2013-09-19 17:43:00,74.9,67.2,29.88,SW,215,3.0,10.0,77,0.00,,,0.00,WeatherCatV1.21B27,2013-09-19 21:43:00,
2013-09-19 17:48:00,74.8,67.5,29.87,SE,142,6.0,8.0,78,0.00,,,0.00,WeatherCatV1.21B27,2013-09-19 21:48:00,
2013-09-19 17:53:00,74.8,67.5,29.88,SSW,196,5.0,6.0,78,0.00,,,0.00,WeatherCatV1.21B27,2013-09-19 21:53:00,
2013-09-19 17:58:00,74.6,67.3,29.88,SSW,197,5.0,7.0,78,0.00,,,0.00,WeatherCatV1.21B27,2013-09-19 21:58:00,
2013-09-19 18:03:00,74.3,67.3,29.88,SSE,159,4.0,6.0,79,0.00,,,0.00,WeatherCatV1.21B27,2013-09-19 22:03:00,
2013-09-19 18:08:00,73.8,67.2,29.87,SSW,195,2.0,4.0,80,0.00,,,0.00,WeatherCatV1.21B27,2013-09-19 22:08:00,
2013-09-19 18:13:00,73.3,67.1,29.86,South,169,4.0,8.0,81,0.00,,,0.00,WeatherCatV1.21B27,2013-09-19 22:13:00,
2013-09-19 18:18:00,72.7,66.9,29.86,South,175,4.0,6.0,82,0.00,,,0.00,WeatherCatV1.21B27,2013-09-19 22:18:00,
2013-09-19 18:23:00,72.2,66.7,29.86,South,184,2.0,3.0,83,0.00,,,0.00,WeatherCatV1.21B27,2013-09-19 22:23:00,
2013-09-19 18:28:00,71.9,66.8,29.86,South,176,4.0,4.0,84,0.00,,,0.00,WeatherCatV1.21B27,2013-09-19 22:28:00,
2013-09-19 18:33:00,71.6,66.8,29.86,West,275,3.0,4.0,85,0.00,,,0.00,WeatherCatV1.21B27,2013-09-19 22:33:00,
2013-09-19 18:38:00,71.5,66.7,29.87,SSW,195,1.0,5.0,85,0.00,,,0.00,WeatherCatV1.21B27,2013-09-19 22:38:00,
2013-09-19 18:43:00,71.3,66.9,29.87,SSW,201,2.0,6.0,86,0.00,,,0.00,WeatherCatV1.21B27,2013-09-19 22:43:00,
2013-09-19 18:48:00,71.3,66.9,29.87,SSW,194,0.0,2.0,86,0.00,,,0.00,WeatherCatV1.21B27,2013-09-19 22:48:00,
2013-09-19 18:53:00,71.3,67.2,29.87,South,189,1.0,3.0,87,0.00,,,0.00,WeatherCatV1.21B27,2013-09-19 22:53:00,
2013-09-19 18:58:00,71.3,67.2,29.87,South,174,1.0,3.0,87,0.00,,,0.00,WeatherCatV1.21B27,2013-09-19 22:58:00,
2013-09-19 19:03:00,71.2,67.1,29.86,South,169,2.0,4.0,87,0.00,,,0.00,WeatherCatV1.21B27,2013-09-19 23:03:00,
2013-09-19 19:08:00,71.1,67.0,29.86,SSW,198,3.0,3.0,87,0.00,,,0.00,WeatherCatV1.21B27,2013-09-19 23:08:00,
2013-09-19 19:13:00,71.0,66.9,29.87,SSW,213,2.0,5.0,87,0.00,,,0.00,WeatherCatV1.21B27,2013-09-19 23:13:00,
2013-09-19 19:18:00,70.9,66.8,29.87,SW,228,2.0,4.0,87,0.00,,,0.00,WeatherCatV1.21B27,2013-09-19 23:18:00,
2013-09-19 19:23:00,70.7,67.0,29.87,SW,217,2.0,3.0,88,0.00,,,0.00,WeatherCatV1.21B27,2013-09-19 23:23:00,
2013-09-19 19:28:00,70.5,66.8,29.87,South,178,3.0,4.0,88,0.00,,,0.00,WeatherCatV1.21B27,2013-09-19 23:28:00,
2013-09-19 19:33:00,70.2,66.5,29.87,South,180,2.0,7.0,88,0.00,,,0.00,WeatherCatV1.21B27,2013-09-19 23:33:00,
2013-09-19 19:38:00,69.9,66.2,29.87,SSW,193,4.0,4.0,88,0.00,,,0.00,WeatherCatV1.21B27,2013-09-19 23:38:00,
2013-09-19 19:44:00,69.7,66.0,29.86,SSE,166,2.0,5.0,88,0.00,,,0.00,WeatherCatV1.21B27,2013-09-19 23:44:00,
2013-09-19 19:49:00,69.5,65.8,29.86,South,172,3.0,8.0,88,0.00,,,0.00,WeatherCatV1.21B27,2013-09-19 23:49:00,
2013-09-19 19:54:00,69.3,65.6,29.86,SSE,151,5.0,6.0,88,0.00,,,0.00,WeatherCatV1.21B27,2013-09-19 23:54:00,
2013-09-19 19:59:00,69.2,65.8,29.85,South,173,5.0,6.0,89,0.00,,,0.00,WeatherCatV1.21B27,2013-09-19 23:59:00,
2013-09-19 20:04:00,69.1,65.7,29.85,South,171,4.0,4.0,89,0.00,,,0.00,WeatherCatV1.21B27,2013-09-20 00:04:00,
2013-09-19 20:09:00,69.0,65.9,29.85,SSE,159,2.0,4.0,90,0.00,,,0.00,WeatherCatV1.21B27,2013-09-20 00:09:00,
2013-09-19 20:14:00,68.8,65.7,29.85,SSW,199,3.0,8.0,90,0.00,,,0.00,WeatherCatV1.21B27,2013-09-20 00:14:00,
2013-09-19 20:19:00,68.7,65.6,29.85,SW,215,1.0,3.0,90,0.00,,,0.00,WeatherCatV1.21B27,2013-09-20 00:19:00,
2013-09-19 20:24:00,68.6,65.5,29.85,South,177,2.0,5.0,90,0.00,,,0.00,WeatherCatV1.21B27,2013-09-20 00:24:00,
2013-09-19 20:29:00,68.5,65.8,29.85,South,188,2.0,4.0,91,0.00,,,0.00,WeatherCatV1.21B27,2013-09-20 00:29:00,
2013-09-19 20:34:00,68.4,65.7,29.86,SSW,213,2.0,5.0,91,0.00,,,0.00,WeatherCatV1.21B27,2013-09-20 00:34:00,
2013-09-19 20:39:00,68.3,65.6,29.86,SSW,196,2.0,5.0,91,0.00,,,0.00,WeatherCatV1.21B27,2013-09-20 00:39:00,
2013-09-19 20:44:00,68.1,65.4,29.86,SSW,193,1.0,4.0,91,0.00,,,0.00,WeatherCatV1.21B27,2013-09-20 00:44:00,
2013-09-19 20:49:00,68.0,65.3,29.86,SSW,198,1.0,6.0,91,0.00,,,0.00,WeatherCatV1.21B27,2013-09-20 00:49:00,
2013-09-19 20:54:00,67.8,65.4,29.86,SSW,193,1.0,3.0,92,0.00,,,0.00,WeatherCatV1.21B27,2013-09-20 00:54:00,
2013-09-19 20:59:00,67.7,65.3,29.86,South,188,1.0,3.0,92,0.00,,,0.00,WeatherCatV1.21B27,2013-09-20 00:59:00,
2013-09-19 21:04:00,67.6,65.2,29.86,South,183,1.0,3.0,92,0.00,,,0.00,WeatherCatV1.21B27,2013-09-20 01:04:00,
2013-09-19 21:09:00,67.5,65.1,29.86,SSW,197,2.0,5.0,92,0.00,,,0.00,WeatherCatV1.21B27,2013-09-20 01:09:00,
2013-09-19 21:14:00,67.3,64.9,29.86,SSE,167,2.0,3.0,92,0.00,,,0.00,WeatherCatV1.21B27,2013-09-20 01:14:00,
2013-09-19 21:19:00,67.1,64.7,29.86,SSE,157,1.0,1.0,92,0.00,,,0.00,WeatherCatV1.21B27,2013-09-20 01:19:00,
2013-09-19 21:24:00,67.0,64.6,29.87,SSE,157,0.0,1.0,92,0.00,,,0.00,WeatherCatV1.21B27,2013-09-20 01:24:00,
2013-09-19 21:29:00,66.8,64.7,29.87,SSE,166,0.0,2.0,93,0.00,,,0.00,WeatherCatV1.21B27,2013-09-20 01:29:00,
2013-09-19 21:34:00,66.7,64.6,29.87,South,173,1.0,2.0,93,0.00,,,0.00,WeatherCatV1.21B27,2013-09-20 01:34:00,
2013-09-19 21:39:00,66.6,64.5,29.87,South,177,0.0,2.0,93,0.00,,,0.00,WeatherCatV1.21B27,2013-09-20 01:39:00,
2013-09-19 21:44:00,66.5,64.4,29.88,South,177,0.0,1.0,93,0.00,,,0.00,WeatherCatV1.21B27,2013-09-20 01:44:00,
2013-09-19 21:50:00,66.5,64.7,29.88,SSE,167,3.0,3.0,94,0.00,,,0.00,WeatherCatV1.21B27,2013-09-20 01:50:00,
2013-09-19 21:55:00,66.5,64.7,29.88,South,184,3.0,3.0,94,0.00,,,0.00,WeatherCatV1.21B27,2013-09-20 01:55:00,
2013-09-19 22:00:00,66.5,64.7,29.88,SSW,205,0.0,2.0,94,0.00,,,0.00,WeatherCatV1.21B27,2013-09-20 02:00:00,
2013-09-19 22:05:00,66.6,64.8,29.88,SSW,205,1.0,1.0,94,0.00,,,0.00,WeatherCatV1.21B27,2013-09-20 02:05:00,
2013-09-19 22:10:00,66.6,64.8,29.88,SE,135,2.0,3.0,94,0.00,,,0.00,WeatherCatV1.21B27,2013-09-20 02:10:00,
2013-09-19 22:15:00,66.7,64.9,29.88,South,180,2.0,5.0,94,0.00,,,0.00,WeatherCatV1.21B27,2013-09-20 02:15:00,
2013-09-19 22:20:00,66.7,64.9,29.88,SSW,198,2.0,3.0,94,0.00,,,0.00,WeatherCatV1.21B27,2013-09-20 02:20:00,
2013-09-19 22:25:00,66.7,64.9,29.88,SSW,192,2.0,4.0,94,0.00,,,0.00,WeatherCatV1.21B27,2013-09-20 02:25:00,
2013-09-19 22:30:00,66.8,65.0,29.88,South,189,1.0,3.0,94,0.00,,,0.00,WeatherCatV1.21B27,2013-09-20 02:30:00,
2013-09-19 22:35:00,66.8,65.0,29.88,South,180,2.0,6.0,94,0.00,,,0.00,WeatherCatV1.21B27,2013-09-20 02:35:00,
2013-09-19 22:40:00,66.8,65.0,29.87,SW,231,3.0,6.0,94,0.00,,,0.00,WeatherCatV1.21B27,2013-09-20 02:40:00,
2013-09-19 22:45:00,66.9,65.1,29.87,SSW,198,5.0,5.0,94,0.00,,,0.00,WeatherCatV1.21B27,2013-09-20 02:45:00,
2013-09-19 22:50:00,67.1,65.3,29.87,South,183,2.0,3.0,94,0.00,,,0.00,WeatherCatV1.21B27,2013-09-20 02:50:00,
2013-09-19 22:55:00,67.2,65.4,29.87,SSW,203,3.0,6.0,94,0.00,,,0.00,WeatherCatV1.21B27,2013-09-20 02:55:00,
2013-09-19 23:00:00,67.5,65.7,29.87,SW,217,2.0,7.0,94,0.00,,,0.00,WeatherCatV1.21B27,2013-09-20 03:00:00,
2013-09-19 23:05:00,67.7,65.6,29.87,SSW,213,4.0,8.0,93,0.00,,,0.00,WeatherCatV1.21B27,2013-09-20 03:05:00,
2013-09-19 23:10:00,68.0,65.9,29.87,SSW,194,4.0,11.0,93,0.00,,,0.00,WeatherCatV1.21B27,2013-09-20 03:10:00,
2013-09-19 23:15:00,68.2,65.8,29.86,SSE,159,3.0,6.0,92,0.00,,,0.00,WeatherCatV1.21B27,2013-09-20 03:15:00,
2013-09-19 23:20:00,68.3,65.9,29.86,SSW,204,3.0,6.0,92,0.00,,,0.00,WeatherCatV1.21B27,2013-09-20 03:20:00,
2013-09-19 23:25:00,68.3,65.9,29.86,South,184,5.0,7.0,92,0.00,,,0.00,WeatherCatV1.21B27,2013-09-20 03:25:00,
2013-09-19 23:30:00,68.3,65.9,29.85,SSE,161,3.0,9.0,92,0.00,,,0.00,WeatherCatV1.21B27,2013-09-20 03:30:00,
2013-09-19 23:35:00,68.2,65.8,29.85,South,178,3.0,7.0,92,0.00,,,0.00,WeatherCatV1.21B27,2013-09-20 03:35:00,
2013-09-19 23:40:00,68.2,65.8,29.85,South,172,5.0,8.0,92,0.00,,,0.00,WeatherCatV1.21B27,2013-09-20 03:40:00,
2013-09-19 23:45:00,68.1,65.7,29.85,South,178,8.0,10.0,92,0.00,,,0.00,WeatherCatV1.21B27,2013-09-20 03:45:00,
2013-09-19 23:50:00,68.0,65.9,29.85,South,184,4.0,5.0,93,0.00,,,0.00,WeatherCatV1.21B27,2013-09-20 03:50:00,
2013-09-19 23:55:00,67.9,65.8,29.85,South,184,5.0,8.0,93,0.00,,,0.00,WeatherCatV1.21B27,2013-09-20 03:55:00,